sensor_id;sensor_type;location;lat;lon;timestamp;temperature;humidity
4647;DHT22;2336;47.822;7.564;2023-11-19T00:00:11;8.80;99.90
4647;DHT22;2336;47.822;7.564;2023-11-19T00:02:38;8.80;99.90
4647;DHT22;2336;47.822;7.564;2023-11-19T00:05:07;8.80;99.90
4647;DHT22;2336;47.822;7.564;2023-11-19T00:07:36;8.80;99.90
4647;DHT22;2336;47.822;7.564;2023-11-19T00:10:07;8.80;99.90
4647;DHT22;2336;47.822;7.564;2023-11-19T00:12:35;8.90;99.90
4647;DHT22;2336;47.822;7.564;2023-11-19T00:15:03;8.90;99.90
4647;DHT22;2336;47.822;7.564;2023-11-19T00:17:30;8.90;99.90
4647;DHT22;2336;47.822;7.564;2023-11-19T00:19:57;8.90;99.90
4647;DHT22;2336;47.822;7.564;2023-11-19T00:22:25;9.10;99.90
4647;DHT22;2336;47.822;7.564;2023-11-19T00:24:52;9.20;99.90
4647;DHT22;2336;47.822;7.564;2023-11-19T00:27:18;9.30;99.90
4647;DHT22;2336;47.822;7.564;2023-11-19T00:29:46;9.40;99.90
4647;DHT22;2336;47.822;7.564;2023-11-19T00:32:13;9.50;99.90
4647;DHT22;2336;47.822;7.564;2023-11-19T00:34:41;9.60;99.90
4647;DHT22;2336;47.822;7.564;2023-11-19T00:37:09;9.70;99.90
4647;DHT22;2336;47.822;7.564;2023-11-19T00:39:37;9.80;99.90
4647;DHT22;2336;47.822;7.564;2023-11-19T00:42:04;9.80;99.90
4647;DHT22;2336;47.822;7.564;2023-11-19T00:44:31;9.90;99.90
4647;DHT22;2336;47.822;7.564;2023-11-19T00:46:58;10.00;99.90
4647;DHT22;2336;47.822;7.564;2023-11-19T00:49:25;10.00;99.90
4647;DHT22;2336;47.822;7.564;2023-11-19T00:51:51;10.20;99.90
4647;DHT22;2336;47.822;7.564;2023-11-19T00:54:18;10.40;99.90
4647;DHT22;2336;47.822;7.564;2023-11-19T00:56:46;10.50;99.90
4647;DHT22;2336;47.822;7.564;2023-11-19T00:59:13;10.70;99.90
4647;DHT22;2336;47.822;7.564;2023-11-19T01:01:41;10.80;99.90
4647;DHT22;2336;47.822;7.564;2023-11-19T01:04:07;10.80;99.90
4647;DHT22;2336;47.822;7.564;2023-11-19T01:06:34;10.90;99.90
4647;DHT22;2336;47.822;7.564;2023-11-19T01:09:01;10.90;99.90
4647;DHT22;2336;47.822;7.564;2023-11-19T01:11:28;10.90;99.90
4647;DHT22;2336;47.822;7.564;2023-11-19T01:13:56;10.90;99.90
4647;DHT22;2336;47.822;7.564;2023-11-19T01:16:23;10.80;99.90
4647;DHT22;2336;47.822;7.564;2023-11-19T01:18:50;10.80;99.90
4647;DHT22;2336;47.822;7.564;2023-11-19T01:21:17;10.70;99.90
4647;DHT22;2336;47.822;7.564;2023-11-19T01:23:44;10.70;99.90
4647;DHT22;2336;47.822;7.564;2023-11-19T01:26:11;10.70;99.90
4647;DHT22;2336;47.822;7.564;2023-11-19T01:28:38;10.70;99.90
4647;DHT22;2336;47.822;7.564;2023-11-19T01:31:11;10.70;99.90
4647;DHT22;2336;47.822;7.564;2023-11-19T01:33:38;10.70;99.90
4647;DHT22;2336;47.822;7.564;2023-11-19T01:36:07;10.70;99.90
4647;DHT22;2336;47.822;7.564;2023-11-19T01:38:34;10.70;99.90
4647;DHT22;2336;47.822;7.564;2023-11-19T01:41:01;10.70;99.90
4647;DHT22;2336;47.822;7.564;2023-11-19T01:43:32;10.70;99.90
4647;DHT22;2336;47.822;7.564;2023-11-19T01:45:59;10.70;99.90
4647;DHT22;2336;47.822;7.564;2023-11-19T01:48:28;10.70;99.90
4647;DHT22;2336;47.822;7.564;2023-11-19T01:50:55;10.80;99.90
4647;DHT22;2336;47.822;7.564;2023-11-19T01:53:23;10.80;99.90
4647;DHT22;2336;47.822;7.564;2023-11-19T01:55:50;10.90;99.90
4647;DHT22;2336;47.822;7.564;2023-11-19T01:58:18;10.90;99.90
4647;DHT22;2336;47.822;7.564;2023-11-19T02:00:45;10.90;99.90
4647;DHT22;2336;47.822;7.564;2023-11-19T02:03:14;11.00;99.90
4647;DHT22;2336;47.822;7.564;2023-11-19T02:05:42;10.90;99.90
4647;DHT22;2336;47.822;7.564;2023-11-19T02:08:09;11.00;99.90
4647;DHT22;2336;47.822;7.564;2023-11-19T02:10:37;11.00;99.90
4647;DHT22;2336;47.822;7.564;2023-11-19T02:13:04;11.00;99.90
4647;DHT22;2336;47.822;7.564;2023-11-19T02:15:33;10.90;99.90
4647;DHT22;2336;47.822;7.564;2023-11-19T02:18:17;10.90;99.90
4647;DHT22;2336;47.822;7.564;2023-11-19T02:20:46;10.80;99.90
4647;DHT22;2336;47.822;7.564;2023-11-19T02:23:13;10.70;99.90
4647;DHT22;2336;47.822;7.564;2023-11-19T02:25:41;10.70;99.90
4647;DHT22;2336;47.822;7.564;2023-11-19T02:28:10;10.60;99.90
4647;DHT22;2336;47.822;7.564;2023-11-19T02:30:38;10.60;99.90
4647;DHT22;2336;47.822;7.564;2023-11-19T02:33:05;10.60;99.90
4647;DHT22;2336;47.822;7.564;2023-11-19T02:35:32;10.50;99.90
4647;DHT22;2336;47.822;7.564;2023-11-19T02:37:59;10.50;99.90
4647;DHT22;2336;47.822;7.564;2023-11-19T02:40:26;10.40;99.90
4647;DHT22;2336;47.822;7.564;2023-11-19T02:42:53;10.40;99.90
4647;DHT22;2336;47.822;7.564;2023-11-19T02:45:22;10.30;99.90
4647;DHT22;2336;47.822;7.564;2023-11-19T02:47:49;10.30;99.90
4647;DHT22;2336;47.822;7.564;2023-11-19T02:50:17;10.30;99.90
4647;DHT22;2336;47.822;7.564;2023-11-19T02:52:51;10.30;99.90
4647;DHT22;2336;47.822;7.564;2023-11-19T02:55:19;10.30;99.90
4647;DHT22;2336;47.822;7.564;2023-11-19T02:57:46;10.40;99.90
4647;DHT22;2336;47.822;7.564;2023-11-19T03:00:15;10.40;99.90
4647;DHT22;2336;47.822;7.564;2023-11-19T03:02:43;10.40;99.90
4647;DHT22;2336;47.822;7.564;2023-11-19T03:05:11;10.30;99.90
4647;DHT22;2336;47.822;7.564;2023-11-19T03:07:40;10.30;99.90
4647;DHT22;2336;47.822;7.564;2023-11-19T03:10:09;10.30;99.90
4647;DHT22;2336;47.822;7.564;2023-11-19T03:12:39;10.40;99.90
4647;DHT22;2336;47.822;7.564;2023-11-19T03:15:06;10.40;99.90
4647;DHT22;2336;47.822;7.564;2023-11-19T03:17:35;10.40;99.90
4647;DHT22;2336;47.822;7.564;2023-11-19T03:20:05;10.30;99.90
4647;DHT22;2336;47.822;7.564;2023-11-19T03:22:33;10.30;99.90
4647;DHT22;2336;47.822;7.564;2023-11-19T03:25:00;10.30;99.90
4647;DHT22;2336;47.822;7.564;2023-11-19T03:27:27;10.30;99.90
4647;DHT22;2336;47.822;7.564;2023-11-19T03:29:54;10.30;99.90
4647;DHT22;2336;47.822;7.564;2023-11-19T03:32:20;10.40;99.90
4647;DHT22;2336;47.822;7.564;2023-11-19T03:34:47;10.50;99.90
4647;DHT22;2336;47.822;7.564;2023-11-19T03:37:15;10.50;99.90
4647;DHT22;2336;47.822;7.564;2023-11-19T03:39:43;10.50;99.90
4647;DHT22;2336;47.822;7.564;2023-11-19T03:42:09;10.50;99.90
4647;DHT22;2336;47.822;7.564;2023-11-19T03:44:38;10.50;99.90
4647;DHT22;2336;47.822;7.564;2023-11-19T03:47:05;10.60;99.90
4647;DHT22;2336;47.822;7.564;2023-11-19T03:49:32;10.60;99.90
4647;DHT22;2336;47.822;7.564;2023-11-19T03:51:59;10.70;99.90
4647;DHT22;2336;47.822;7.564;2023-11-19T03:54:28;10.70;99.90
4647;DHT22;2336;47.822;7.564;2023-11-19T03:56:54;10.70;99.90
4647;DHT22;2336;47.822;7.564;2023-11-19T03:59:21;10.80;99.90
4647;DHT22;2336;47.822;7.564;2023-11-19T04:01:48;10.80;99.90
4647;DHT22;2336;47.822;7.564;2023-11-19T04:04:14;10.80;99.90
4647;DHT22;2336;47.822;7.564;2023-11-19T04:06:41;10.90;99.90
4647;DHT22;2336;47.822;7.564;2023-11-19T04:09:09;10.90;99.90
4647;DHT22;2336;47.822;7.564;2023-11-19T04:11:37;10.90;99.90
4647;DHT22;2336;47.822;7.564;2023-11-19T04:14:05;10.90;99.90
4647;DHT22;2336;47.822;7.564;2023-11-19T04:16:32;10.90;99.90
4647;DHT22;2336;47.822;7.564;2023-11-19T04:18:59;11.00;99.90
4647;DHT22;2336;47.822;7.564;2023-11-19T04:21:25;11.10;99.90
4647;DHT22;2336;47.822;7.564;2023-11-19T04:23:52;11.20;99.90
4647;DHT22;2336;47.822;7.564;2023-11-19T04:26:19;11.20;99.90
4647;DHT22;2336;47.822;7.564;2023-11-19T04:28:47;11.20;99.90
4647;DHT22;2336;47.822;7.564;2023-11-19T04:31:15;11.30;99.90
4647;DHT22;2336;47.822;7.564;2023-11-19T04:33:41;11.20;99.90
4647;DHT22;2336;47.822;7.564;2023-11-19T04:36:09;11.20;99.90
4647;DHT22;2336;47.822;7.564;2023-11-19T04:38:37;11.30;99.90
4647;DHT22;2336;47.822;7.564;2023-11-19T04:41:05;11.20;99.90
4647;DHT22;2336;47.822;7.564;2023-11-19T04:43:32;11.30;99.90
4647;DHT22;2336;47.822;7.564;2023-11-19T04:46:03;11.30;99.90
4647;DHT22;2336;47.822;7.564;2023-11-19T04:48:29;11.30;99.90
4647;DHT22;2336;47.822;7.564;2023-11-19T04:50:56;11.30;99.90
4647;DHT22;2336;47.822;7.564;2023-11-19T04:53:23;11.30;99.90
4647;DHT22;2336;47.822;7.564;2023-11-19T04:55:50;11.30;99.90
4647;DHT22;2336;47.822;7.564;2023-11-19T04:58:17;11.40;99.90
4647;DHT22;2336;47.822;7.564;2023-11-19T05:00:44;11.50;99.90
4647;DHT22;2336;47.822;7.564;2023-11-19T05:03:12;11.50;99.90
4647;DHT22;2336;47.822;7.564;2023-11-19T05:05:39;11.50;99.90
4647;DHT22;2336;47.822;7.564;2023-11-19T05:08:06;11.60;99.90
4647;DHT22;2336;47.822;7.564;2023-11-19T05:10:33;11.60;99.90
4647;DHT22;2336;47.822;7.564;2023-11-19T05:12:59;11.70;99.90
4647;DHT22;2336;47.822;7.564;2023-11-19T05:15:26;11.60;99.90
4647;DHT22;2336;47.822;7.564;2023-11-19T05:17:53;11.70;99.90
4647;DHT22;2336;47.822;7.564;2023-11-19T05:20:21;11.70;99.90
4647;DHT22;2336;47.822;7.564;2023-11-19T05:22:48;11.70;99.90
4647;DHT22;2336;47.822;7.564;2023-11-19T05:25:16;11.70;99.90
4647;DHT22;2336;47.822;7.564;2023-11-19T05:27:45;11.80;99.90
4647;DHT22;2336;47.822;7.564;2023-11-19T05:30:12;11.70;99.90
4647;DHT22;2336;47.822;7.564;2023-11-19T05:32:39;11.70;99.90
4647;DHT22;2336;47.822;7.564;2023-11-19T05:35:07;11.80;99.90
4647;DHT22;2336;47.822;7.564;2023-11-19T05:37:36;11.80;99.90
4647;DHT22;2336;47.822;7.564;2023-11-19T05:40:04;11.80;99.90
4647;DHT22;2336;47.822;7.564;2023-11-19T05:42:37;11.90;99.90
4647;DHT22;2336;47.822;7.564;2023-11-19T05:45:04;11.90;99.90
4647;DHT22;2336;47.822;7.564;2023-11-19T05:47:33;11.90;99.90
4647;DHT22;2336;47.822;7.564;2023-11-19T05:50:00;11.90;99.90
4647;DHT22;2336;47.822;7.564;2023-11-19T05:52:27;11.90;99.90
4647;DHT22;2336;47.822;7.564;2023-11-19T05:55:00;11.90;99.90
4647;DHT22;2336;47.822;7.564;2023-11-19T05:57:29;11.90;99.90
4647;DHT22;2336;47.822;7.564;2023-11-19T05:59:56;11.90;99.90
4647;DHT22;2336;47.822;7.564;2023-11-19T06:02:24;11.90;99.90
4647;DHT22;2336;47.822;7.564;2023-11-19T06:04:52;12.00;99.90
4647;DHT22;2336;47.822;7.564;2023-11-19T06:07:19;11.90;99.90
4647;DHT22;2336;47.822;7.564;2023-11-19T06:09:46;12.00;99.90
4647;DHT22;2336;47.822;7.564;2023-11-19T06:12:14;12.00;99.90
4647;DHT22;2336;47.822;7.564;2023-11-19T06:14:41;11.90;99.90
4647;DHT22;2336;47.822;7.564;2023-11-19T06:17:08;12.10;99.90
4647;DHT22;2336;47.822;7.564;2023-11-19T06:19:36;12.00;99.90
4647;DHT22;2336;47.822;7.564;2023-11-19T06:22:03;12.00;99.90
4647;DHT22;2336;47.822;7.564;2023-11-19T06:24:30;12.00;99.90
4647;DHT22;2336;47.822;7.564;2023-11-19T06:26:57;12.00;99.90
4647;DHT22;2336;47.822;7.564;2023-11-19T06:29:25;12.00;99.90
4647;DHT22;2336;47.822;7.564;2023-11-19T06:31:52;12.00;99.90
4647;DHT22;2336;47.822;7.564;2023-11-19T06:34:18;12.10;99.90
4647;DHT22;2336;47.822;7.564;2023-11-19T06:36:45;12.00;99.90
4647;DHT22;2336;47.822;7.564;2023-11-19T06:39:13;12.10;99.90
4647;DHT22;2336;47.822;7.564;2023-11-19T06:41:44;12.10;99.90
4647;DHT22;2336;47.822;7.564;2023-11-19T06:44:11;12.10;99.90
4647;DHT22;2336;47.822;7.564;2023-11-19T06:46:40;12.10;99.90
4647;DHT22;2336;47.822;7.564;2023-11-19T06:49:06;12.10;99.90
4647;DHT22;2336;47.822;7.564;2023-11-19T06:51:34;12.10;99.90
4647;DHT22;2336;47.822;7.564;2023-11-19T06:54:00;12.10;99.90
4647;DHT22;2336;47.822;7.564;2023-11-19T06:56:27;12.10;99.90
4647;DHT22;2336;47.822;7.564;2023-11-19T06:58:54;12.10;99.90
4647;DHT22;2336;47.822;7.564;2023-11-19T07:01:21;12.10;99.90
4647;DHT22;2336;47.822;7.564;2023-11-19T07:03:49;12.10;99.90
4647;DHT22;2336;47.822;7.564;2023-11-19T07:06:16;12.20;99.90
4647;DHT22;2336;47.822;7.564;2023-11-19T07:08:44;12.20;99.90
4647;DHT22;2336;47.822;7.564;2023-11-19T07:11:11;12.20;99.90
4647;DHT22;2336;47.822;7.564;2023-11-19T07:13:39;12.20;99.90
4647;DHT22;2336;47.822;7.564;2023-11-19T07:16:07;12.20;99.90
4647;DHT22;2336;47.822;7.564;2023-11-19T07:18:36;12.20;99.90
4647;DHT22;2336;47.822;7.564;2023-11-19T07:21:04;12.20;99.90
4647;DHT22;2336;47.822;7.564;2023-11-19T07:23:31;12.20;99.90
4647;DHT22;2336;47.822;7.564;2023-11-19T07:25:58;12.30;99.90
4647;DHT22;2336;47.822;7.564;2023-11-19T07:28:25;12.30;99.90
4647;DHT22;2336;47.822;7.564;2023-11-19T07:30:54;12.30;99.90
4647;DHT22;2336;47.822;7.564;2023-11-19T07:33:22;12.30;99.90
4647;DHT22;2336;47.822;7.564;2023-11-19T07:35:49;12.40;99.90
4647;DHT22;2336;47.822;7.564;2023-11-19T07:38:17;12.40;99.90
4647;DHT22;2336;47.822;7.564;2023-11-19T07:40:44;12.40;99.90
4647;DHT22;2336;47.822;7.564;2023-11-19T07:43:11;12.40;99.90
4647;DHT22;2336;47.822;7.564;2023-11-19T07:45:38;12.50;99.90
4647;DHT22;2336;47.822;7.564;2023-11-19T07:48:05;12.60;99.90
4647;DHT22;2336;47.822;7.564;2023-11-19T07:50:32;12.50;99.90
4647;DHT22;2336;47.822;7.564;2023-11-19T07:52:59;12.50;99.90
4647;DHT22;2336;47.822;7.564;2023-11-19T07:55:29;12.50;99.90
4647;DHT22;2336;47.822;7.564;2023-11-19T07:57:55;12.50;99.90
4647;DHT22;2336;47.822;7.564;2023-11-19T08:00:22;12.60;99.90
4647;DHT22;2336;47.822;7.564;2023-11-19T08:02:49;12.60;99.90
4647;DHT22;2336;47.822;7.564;2023-11-19T08:05:16;12.50;99.90
4647;DHT22;2336;47.822;7.564;2023-11-19T08:07:42;12.50;99.90
4647;DHT22;2336;47.822;7.564;2023-11-19T08:10:09;12.50;99.90
4647;DHT22;2336;47.822;7.564;2023-11-19T08:12:37;12.60;99.90
4647;DHT22;2336;47.822;7.564;2023-11-19T08:15:05;12.60;99.90
4647;DHT22;2336;47.822;7.564;2023-11-19T08:17:32;12.60;99.90
4647;DHT22;2336;47.822;7.564;2023-11-19T08:19:59;12.60;99.90
4647;DHT22;2336;47.822;7.564;2023-11-19T08:22:26;12.70;99.90
4647;DHT22;2336;47.822;7.564;2023-11-19T08:24:53;12.70;99.90
4647;DHT22;2336;47.822;7.564;2023-11-19T08:27:20;12.70;99.90
4647;DHT22;2336;47.822;7.564;2023-11-19T08:29:53;12.70;99.90
4647;DHT22;2336;47.822;7.564;2023-11-19T08:32:21;12.70;99.90
4647;DHT22;2336;47.822;7.564;2023-11-19T08:34:48;12.80;99.90
4647;DHT22;2336;47.822;7.564;2023-11-19T08:37:14;12.80;99.90
4647;DHT22;2336;47.822;7.564;2023-11-19T08:39:43;12.90;99.90
4647;DHT22;2336;47.822;7.564;2023-11-19T08:42:10;12.90;99.90
4647;DHT22;2336;47.822;7.564;2023-11-19T08:44:37;12.90;99.90
4647;DHT22;2336;47.822;7.564;2023-11-19T08:47:05;13.00;99.90
4647;DHT22;2336;47.822;7.564;2023-11-19T08:49:32;12.90;99.90
4647;DHT22;2336;47.822;7.564;2023-11-19T08:51:58;12.90;99.90
4647;DHT22;2336;47.822;7.564;2023-11-19T08:54:25;12.90;99.90
4647;DHT22;2336;47.822;7.564;2023-11-19T08:56:52;12.90;99.90
4647;DHT22;2336;47.822;7.564;2023-11-19T08:59:20;13.00;99.90
4647;DHT22;2336;47.822;7.564;2023-11-19T09:01:47;13.00;99.90
4647;DHT22;2336;47.822;7.564;2023-11-19T09:04:15;13.10;99.90
4647;DHT22;2336;47.822;7.564;2023-11-19T09:06:42;13.10;99.90
4647;DHT22;2336;47.822;7.564;2023-11-19T09:09:10;13.00;99.90
4647;DHT22;2336;47.822;7.564;2023-11-19T09:11:37;13.00;99.90
4647;DHT22;2336;47.822;7.564;2023-11-19T09:14:04;13.10;99.90
4647;DHT22;2336;47.822;7.564;2023-11-19T09:16:31;13.10;99.90
4647;DHT22;2336;47.822;7.564;2023-11-19T09:18:59;13.10;99.90
4647;DHT22;2336;47.822;7.564;2023-11-19T09:21:29;13.10;99.90
4647;DHT22;2336;47.822;7.564;2023-11-19T09:23:56;13.10;99.90
4647;DHT22;2336;47.822;7.564;2023-11-19T09:26:23;13.10;99.90
4647;DHT22;2336;47.822;7.564;2023-11-19T09:28:50;13.10;99.90
4647;DHT22;2336;47.822;7.564;2023-11-19T09:31:17;13.10;99.90
4647;DHT22;2336;47.822;7.564;2023-11-19T09:33:45;13.10;99.90
4647;DHT22;2336;47.822;7.564;2023-11-19T09:36:12;13.10;99.90
4647;DHT22;2336;47.822;7.564;2023-11-19T09:38:41;13.00;99.90
4647;DHT22;2336;47.822;7.564;2023-11-19T09:41:10;13.10;99.90
4647;DHT22;2336;47.822;7.564;2023-11-19T09:43:39;13.10;99.90
4647;DHT22;2336;47.822;7.564;2023-11-19T09:46:07;13.10;99.90
4647;DHT22;2336;47.822;7.564;2023-11-19T09:48:37;13.10;99.90
4647;DHT22;2336;47.822;7.564;2023-11-19T09:51:06;13.10;99.90
4647;DHT22;2336;47.822;7.564;2023-11-19T09:53:33;13.10;99.90
4647;DHT22;2336;47.822;7.564;2023-11-19T09:56:02;13.10;99.90
4647;DHT22;2336;47.822;7.564;2023-11-19T09:58:29;13.10;99.90
4647;DHT22;2336;47.822;7.564;2023-11-19T10:00:56;13.10;99.90
4647;DHT22;2336;47.822;7.564;2023-11-19T10:03:25;13.10;99.90
4647;DHT22;2336;47.822;7.564;2023-11-19T10:05:54;13.10;99.90
4647;DHT22;2336;47.822;7.564;2023-11-19T10:08:21;13.20;99.90
4647;DHT22;2336;47.822;7.564;2023-11-19T10:10:48;13.20;99.90
4647;DHT22;2336;47.822;7.564;2023-11-19T10:13:16;13.20;99.90
4647;DHT22;2336;47.822;7.564;2023-11-19T10:15:44;13.30;99.90
4647;DHT22;2336;47.822;7.564;2023-11-19T10:18:10;13.30;99.90
4647;DHT22;2336;47.822;7.564;2023-11-19T10:20:38;13.40;99.90
4647;DHT22;2336;47.822;7.564;2023-11-19T10:23:07;13.50;99.90
4647;DHT22;2336;47.822;7.564;2023-11-19T10:25:34;13.60;99.90
4647;DHT22;2336;47.822;7.564;2023-11-19T10:28:02;13.60;99.90
4647;DHT22;2336;47.822;7.564;2023-11-19T10:30:30;13.80;99.90
4647;DHT22;2336;47.822;7.564;2023-11-19T10:33:03;13.80;99.90
4647;DHT22;2336;47.822;7.564;2023-11-19T10:35:31;13.90;99.90
4647;DHT22;2336;47.822;7.564;2023-11-19T10:38:00;14.00;99.90
4647;DHT22;2336;47.822;7.564;2023-11-19T10:40:40;14.00;99.90
4647;DHT22;2336;47.822;7.564;2023-11-19T10:43:07;14.00;99.90
4647;DHT22;2336;47.822;7.564;2023-11-19T10:45:36;14.00;99.90
4647;DHT22;2336;47.822;7.564;2023-11-19T10:48:04;14.00;99.90
4647;DHT22;2336;47.822;7.564;2023-11-19T10:50:33;14.00;99.90
4647;DHT22;2336;47.822;7.564;2023-11-19T10:53:01;14.00;99.90
4647;DHT22;2336;47.822;7.564;2023-11-19T10:55:30;14.00;99.90
4647;DHT22;2336;47.822;7.564;2023-11-19T10:58:00;14.00;99.90
4647;DHT22;2336;47.822;7.564;2023-11-19T11:00:29;14.00;99.90
4647;DHT22;2336;47.822;7.564;2023-11-19T11:03:01;14.00;99.90
4647;DHT22;2336;47.822;7.564;2023-11-19T11:05:32;14.00;99.90
4647;DHT22;2336;47.822;7.564;2023-11-19T11:08:00;14.00;99.90
4647;DHT22;2336;47.822;7.564;2023-11-19T11:10:28;14.00;99.90
4647;DHT22;2336;47.822;7.564;2023-11-19T11:12:59;14.00;99.90
4647;DHT22;2336;47.822;7.564;2023-11-19T11:15:27;14.10;99.90
4647;DHT22;2336;47.822;7.564;2023-11-19T11:18:00;14.00;99.90
4647;DHT22;2336;47.822;7.564;2023-11-19T11:20:29;14.10;99.90
4647;DHT22;2336;47.822;7.564;2023-11-19T11:23:10;14.00;99.90
4647;DHT22;2336;47.822;7.564;2023-11-19T11:25:48;14.10;99.90
4647;DHT22;2336;47.822;7.564;2023-11-19T11:28:26;14.10;99.90
4647;DHT22;2336;47.822;7.564;2023-11-19T11:31:31;14.10;99.90
4647;DHT22;2336;47.822;7.564;2023-11-19T11:34:20;14.20;99.90
4647;DHT22;2336;47.822;7.564;2023-11-19T11:36:58;14.30;99.90
4647;DHT22;2336;47.822;7.564;2023-11-19T11:39:29;14.40;99.90
4647;DHT22;2336;47.822;7.564;2023-11-19T11:45:08;14.40;99.90
4647;DHT22;2336;47.822;7.564;2023-11-19T11:48:09;14.40;99.90
4647;DHT22;2336;47.822;7.564;2023-11-19T11:50:55;14.40;99.90
4647;DHT22;2336;47.822;7.564;2023-11-19T11:53:23;14.40;99.90
4647;DHT22;2336;47.822;7.564;2023-11-19T11:55:56;14.40;99.90
4647;DHT22;2336;47.822;7.564;2023-11-19T11:58:32;14.40;99.90
4647;DHT22;2336;47.822;7.564;2023-11-19T12:01:02;14.40;99.90
4647;DHT22;2336;47.822;7.564;2023-11-19T12:03:31;14.40;99.90
4647;DHT22;2336;47.822;7.564;2023-11-19T12:06:00;14.40;99.90
4647;DHT22;2336;47.822;7.564;2023-11-19T12:08:28;14.30;99.90
4647;DHT22;2336;47.822;7.564;2023-11-19T12:10:57;14.30;99.90
4647;DHT22;2336;47.822;7.564;2023-11-19T12:13:42;14.20;99.90
4647;DHT22;2336;47.822;7.564;2023-11-19T12:16:11;14.20;99.90
4647;DHT22;2336;47.822;7.564;2023-11-19T12:18:41;14.10;99.90
4647;DHT22;2336;47.822;7.564;2023-11-19T12:21:09;14.10;99.90
4647;DHT22;2336;47.822;7.564;2023-11-19T12:23:45;14.10;99.90
4647;DHT22;2336;47.822;7.564;2023-11-19T12:26:35;14.10;99.90
4647;DHT22;2336;47.822;7.564;2023-11-19T12:29:02;14.10;99.90
4647;DHT22;2336;47.822;7.564;2023-11-19T12:31:33;14.10;99.90
4647;DHT22;2336;47.822;7.564;2023-11-19T12:34:08;14.10;99.90
4647;DHT22;2336;47.822;7.564;2023-11-19T12:36:39;14.20;99.90
4647;DHT22;2336;47.822;7.564;2023-11-19T12:39:07;14.20;99.90
4647;DHT22;2336;47.822;7.564;2023-11-19T12:41:49;14.20;99.90
4647;DHT22;2336;47.822;7.564;2023-11-19T12:44:16;14.40;99.90
4647;DHT22;2336;47.822;7.564;2023-11-19T12:46:43;14.40;99.90
4647;DHT22;2336;47.822;7.564;2023-11-19T12:49:11;14.40;99.90
4647;DHT22;2336;47.822;7.564;2023-11-19T12:51:39;14.40;99.90
4647;DHT22;2336;47.822;7.564;2023-11-19T12:54:06;14.50;99.90
4647;DHT22;2336;47.822;7.564;2023-11-19T12:56:33;14.50;99.90
4647;DHT22;2336;47.822;7.564;2023-11-19T12:59:10;14.70;99.90
4647;DHT22;2336;47.822;7.564;2023-11-19T13:01:38;14.90;99.90
4647;DHT22;2336;47.822;7.564;2023-11-19T13:04:16;15.10;99.90
4647;DHT22;2336;47.822;7.564;2023-11-19T13:06:46;15.30;99.90
4647;DHT22;2336;47.822;7.564;2023-11-19T13:09:22;15.10;99.90
4647;DHT22;2336;47.822;7.564;2023-11-19T13:11:49;15.20;99.90
4647;DHT22;2336;47.822;7.564;2023-11-19T13:14:17;15.20;99.90
4647;DHT22;2336;47.822;7.564;2023-11-19T13:16:44;15.20;99.90
4647;DHT22;2336;47.822;7.564;2023-11-19T13:19:12;15.40;99.90
4647;DHT22;2336;47.822;7.564;2023-11-19T13:21:39;15.40;99.90
4647;DHT22;2336;47.822;7.564;2023-11-19T13:24:07;15.50;99.90
4647;DHT22;2336;47.822;7.564;2023-11-19T13:26:34;15.70;99.90
4647;DHT22;2336;47.822;7.564;2023-11-19T13:29:01;15.90;99.90
4647;DHT22;2336;47.822;7.564;2023-11-19T13:31:28;16.00;99.90
4647;DHT22;2336;47.822;7.564;2023-11-19T13:33:55;16.10;99.90
4647;DHT22;2336;47.822;7.564;2023-11-19T13:36:22;16.10;99.90
4647;DHT22;2336;47.822;7.564;2023-11-19T13:38:49;16.20;99.90
4647;DHT22;2336;47.822;7.564;2023-11-19T13:41:17;16.10;99.90
4647;DHT22;2336;47.822;7.564;2023-11-19T13:43:44;16.00;99.90
4647;DHT22;2336;47.822;7.564;2023-11-19T13:46:11;15.90;99.90
4647;DHT22;2336;47.822;7.564;2023-11-19T13:48:37;15.90;99.90
4647;DHT22;2336;47.822;7.564;2023-11-19T13:51:05;15.90;99.90
4647;DHT22;2336;47.822;7.564;2023-11-19T13:53:32;16.00;99.90
4647;DHT22;2336;47.822;7.564;2023-11-19T13:55:58;16.10;99.90
4647;DHT22;2336;47.822;7.564;2023-11-19T13:58:26;16.20;99.90
4647;DHT22;2336;47.822;7.564;2023-11-19T14:00:54;16.30;99.90
4647;DHT22;2336;47.822;7.564;2023-11-19T14:03:20;16.30;99.90
4647;DHT22;2336;47.822;7.564;2023-11-19T14:05:47;16.30;99.90
4647;DHT22;2336;47.822;7.564;2023-11-19T14:08:17;16.50;99.90
4647;DHT22;2336;47.822;7.564;2023-11-19T14:10:44;16.70;99.90
4647;DHT22;2336;47.822;7.564;2023-11-19T14:13:11;16.70;99.90
4647;DHT22;2336;47.822;7.564;2023-11-19T14:15:42;16.70;99.90
4647;DHT22;2336;47.822;7.564;2023-11-19T14:18:09;16.70;99.90
4647;DHT22;2336;47.822;7.564;2023-11-19T14:20:35;16.60;99.90
4647;DHT22;2336;47.822;7.564;2023-11-19T14:23:04;16.50;99.90
4647;DHT22;2336;47.822;7.564;2023-11-19T14:25:31;16.20;99.90
4647;DHT22;2336;47.822;7.564;2023-11-19T14:27:57;16.00;99.90
4647;DHT22;2336;47.822;7.564;2023-11-19T14:30:25;15.90;99.90
4647;DHT22;2336;47.822;7.564;2023-11-19T14:32:53;15.90;99.90
4647;DHT22;2336;47.822;7.564;2023-11-19T14:35:20;15.80;99.90
4647;DHT22;2336;47.822;7.564;2023-11-19T14:37:47;15.80;99.90
4647;DHT22;2336;47.822;7.564;2023-11-19T14:40:14;15.80;99.90
4647;DHT22;2336;47.822;7.564;2023-11-19T14:42:41;15.80;99.90
4647;DHT22;2336;47.822;7.564;2023-11-19T14:45:08;15.70;99.90
4647;DHT22;2336;47.822;7.564;2023-11-19T14:47:37;15.60;99.90
4647;DHT22;2336;47.822;7.564;2023-11-19T14:50:07;15.50;99.90
4647;DHT22;2336;47.822;7.564;2023-11-19T14:52:34;15.40;99.90
4647;DHT22;2336;47.822;7.564;2023-11-19T14:55:01;15.20;99.90
4647;DHT22;2336;47.822;7.564;2023-11-19T14:57:29;15.20;99.90
4647;DHT22;2336;47.822;7.564;2023-11-19T14:59:56;15.10;99.90
4647;DHT22;2336;47.822;7.564;2023-11-19T15:02:23;15.00;99.90
4647;DHT22;2336;47.822;7.564;2023-11-19T15:04:50;15.00;99.90
4647;DHT22;2336;47.822;7.564;2023-11-19T15:07:18;15.00;99.90
4647;DHT22;2336;47.822;7.564;2023-11-19T15:09:44;14.90;99.90
4647;DHT22;2336;47.822;7.564;2023-11-19T15:12:12;14.90;99.90
4647;DHT22;2336;47.822;7.564;2023-11-19T15:14:39;14.80;99.90
4647;DHT22;2336;47.822;7.564;2023-11-19T15:17:06;14.80;99.90
4647;DHT22;2336;47.822;7.564;2023-11-19T15:19:34;14.70;99.90
4647;DHT22;2336;47.822;7.564;2023-11-19T15:22:00;14.60;99.90
4647;DHT22;2336;47.822;7.564;2023-11-19T15:24:32;14.60;99.90
4647;DHT22;2336;47.822;7.564;2023-11-19T15:26:59;14.50;99.90
4647;DHT22;2336;47.822;7.564;2023-11-19T15:29:25;14.40;99.90
4647;DHT22;2336;47.822;7.564;2023-11-19T15:31:52;14.30;99.90
4647;DHT22;2336;47.822;7.564;2023-11-19T15:34:19;14.30;99.90
4647;DHT22;2336;47.822;7.564;2023-11-19T15:36:46;14.20;99.90
4647;DHT22;2336;47.822;7.564;2023-11-19T15:39:13;14.20;99.90
4647;DHT22;2336;47.822;7.564;2023-11-19T15:41:41;14.10;99.90
4647;DHT22;2336;47.822;7.564;2023-11-19T15:44:08;14.10;99.90
4647;DHT22;2336;47.822;7.564;2023-11-19T15:46:35;14.00;99.90
4647;DHT22;2336;47.822;7.564;2023-11-19T15:49:02;13.90;99.90
4647;DHT22;2336;47.822;7.564;2023-11-19T15:51:29;13.90;99.90
4647;DHT22;2336;47.822;7.564;2023-11-19T15:53:56;13.90;99.90
4647;DHT22;2336;47.822;7.564;2023-11-19T15:56:23;13.90;99.90
4647;DHT22;2336;47.822;7.564;2023-11-19T15:58:51;14.00;99.90
4647;DHT22;2336;47.822;7.564;2023-11-19T16:01:19;14.00;99.90
4647;DHT22;2336;47.822;7.564;2023-11-19T16:03:46;14.00;99.90
4647;DHT22;2336;47.822;7.564;2023-11-19T16:06:13;14.10;99.90
4647;DHT22;2336;47.822;7.564;2023-11-19T16:08:40;14.10;99.90
4647;DHT22;2336;47.822;7.564;2023-11-19T16:11:09;14.20;99.90